Terminal Aerodrome Forecast
Issued by NWS

Home | Current Version | Previous Version | Text Only | Print | Product List | Glossary On
Versions: 1 2 3 4 5 6 7 8 9 10 11 12 13 14 15 16 17 18 19 20
830
FTUS42 KILM 211735
TAFCRE
TAF
KCRE 211735Z 2118/2218 16005KT 1/4SM FG VCSH VV002
     FM220300 21008KT 1/2SM FG OVC001
     FM221200 21005KT 1/4SM FG OVC003
     FM221400 21007KT 1/2SM FG OVC003
     FM221600 21010KT 4SM BR OVC007=

USA.gov is the U.S. government's official web portal to all federal, state and local government web resources and services.